Time;durP1;ratioP1;P1;durP2;ratioP2;P2;SDS_P1;SDS_P2;PMS_P1;PMS_P2;Temp;Humidity;BMP_temperature;BMP_pressure;BME280_temperature;BME280_humidity;BME280_pressure;Samples;Min_cycle;Max_cycle;Signal;HPM_P1;HPM_P2
2022/04/26 03:37:17;;;;;;;;;;;;;;;13.48;55.79;101724.50;5072950;28;19999;-70
2022/04/26 03:39:43;;;;;;;;;;;;;;;13.64;56.00;101721.22;5072548;28;19931;-70
2022/04/26 03:42:08;;;;;;;;;;;;;;;13.13;57.09;101727.69;5073496;28;19916;-70
2022/04/26 03:44:33;;;;;;;;;;;;;;;13.40;56.51;101724.78;5071813;28;19920;-70
2022/04/26 03:46:59;;;;;;;;;;;;;;;12.75;58.98;101731.50;5093217;28;20398;-71
2022/04/26 03:49:24;;;;;;;;;;;;;;;13.08;57.73;101732.94;5083040;28;19920;-71
2022/04/26 03:51:52;;;;;;;;;;;;;;;13.53;56.42;101728.16;5072573;28;19970;-70
2022/04/26 03:54:17;;;;;;;;;;;;;;;14.03;54.60;101734.28;5072715;28;20011;-70
2022/04/26 03:56:42;;;;;;;;;;;;;;;13.98;55.18;101737.66;5072494;28;20002;-71
2022/04/26 03:59:07;;;;;;;;;;;;;;;14.08;54.76;101740.66;5071746;28;19925;-69
2022/04/26 04:01:33;;;;;;;;;;;;;;;13.66;55.29;101736.13;5072224;28;19984;-72
2022/04/26 04:03:58;;;;;;;;;;;;;;;12.84;57.62;101744.50;5072216;28;20006;-71
2022/04/26 04:06:23;;;;;;;;;;;;;;;13.18;57.67;101738.66;5072589;28;19920;-70
2022/04/26 04:08:48;;;;;;;;;;;;;;;13.50;56.16;101733.19;5072436;28;19916;-70
2022/04/26 04:11:14;;;;;;;;;;;;;;;14.65;52.74;101739.31;5071904;28;19920;-70
2022/04/26 04:13:39;;;;;;;;;;;;;;;14.19;54.01;101736.34;5071778;28;20398;-70
2022/04/26 04:16:04;;;;;;;;;;;;;;;13.28;56.05;101732.78;5071726;28;19920;-70
2022/04/26 04:21:13;;;;;;;;;;;;;;;13.92;54.38;101741.25;5072365;28;19923;-70
2022/04/26 04:23:40;;;;;;;;;;;;;;;13.89;54.25;101744.41;5071516;28;19990;-69
2022/04/26 04:26:05;;;;;;;;;;;;;;;14.12;52.95;101749.13;5072046;28;20265;-69
2022/04/26 04:28:31;;;;;;;;;;;;;;;13.97;54.06;101751.41;5071532;28;19927;-70
2022/04/26 04:30:57;;;;;;;;;;;;;;;13.85;53.88;101759.44;5071738;28;19927;-71
2022/04/26 04:33:22;;;;;;;;;;;;;;;12.92;57.09;101763.13;5071404;28;19909;-70
2022/04/26 04:35:47;;;;;;;;;;;;;;;13.47;55.82;101758.75;5074950;28;19955;-70
2022/04/26 04:38:12;;;;;;;;;;;;;;;13.50;55.53;101766.44;5090405;28;19916;-71
2022/04/26 04:40:37;;;;;;;;;;;;;;;13.40;55.38;101760.69;5091936;28;19924;-69
2022/04/26 04:43:03;;;;;;;;;;;;;;;13.55;55.86;101765.75;5091817;28;19920;-70
2022/04/26 04:45:28;;;;;;;;;;;;;;;14.25;53.27;101764.38;5084128;28;19920;-71
2022/04/26 04:47:53;;;;;;;;;;;;;;;13.56;55.19;101770.91;5071971;28;19999;-70
2022/04/26 04:50:18;;;;;;;;;;;;;;;13.64;55.19;101775.22;5089707;28;20296;-71
2022/04/26 04:52:44;;;;;;;;;;;;;;;13.84;54.62;101773.97;5091568;28;20010;-71
2022/04/26 04:55:09;;;;;;;;;;;;;;;13.34;56.35;101775.09;5091437;28;20041;-70
2022/04/26 04:57:34;;;;;;;;;;;;;;;13.25;56.60;101781.78;5091371;28;20447;-71
2022/04/26 05:00:00;;;;;;;;;;;;;;;13.21;56.55;101786.81;5074576;28;19931;-70
2022/04/26 05:02:25;;;;;;;;;;;;;;;14.23;53.50;101794.31;5071161;28;19939;-71
2022/04/26 05:04:50;;;;;;;;;;;;;;;14.49;52.32;101795.91;5071220;28;20341;-71
2022/04/26 05:07:15;;;;;;;;;;;;;;;13.53;55.72;101794.84;5071181;28;20385;-71
2022/04/26 05:09:41;;;;;;;;;;;;;;;13.68;54.68;101796.16;5071303;28;19999;-70
2022/04/26 05:12:07;;;;;;;;;;;;;;;14.21;52.96;101799.13;5072143;28;19977;-72
2022/04/26 05:14:32;;;;;;;;;;;;;;;14.79;51.62;101797.59;5071530;28;19916;-71
2022/04/26 05:16:57;;;;;;;;;;;;;;;13.78;53.75;101801.88;5070887;28;20394;-70
2022/04/26 05:19:22;;;;;;;;;;;;;;;14.18;53.03;101799.59;5069632;28;19948;-71
2022/04/26 05:21:48;;;;;;;;;;;;;;;13.96;54.15;101811.88;5071291;28;20391;-71
2022/04/26 05:26:57;;;;;;;;;;;;;;;14.65;52.14;101816.94;5071393;28;19924;-71
2022/04/26 05:29:22;;;;;;;;;;;;;;;14.53;51.80;101811.47;5071251;28;19925;-71
2022/04/26 05:31:47;;;;;;;;;;;;;;;13.52;54.69;101818.31;5070980;28;19924;-70
2022/04/26 05:34:12;;;;;;;;;;;;;;;14.25;53.08;101821.16;5069473;28;20296;-70
2022/04/26 05:36:37;;;;;;;;;;;;;;;14.09;53.06;101826.09;5080914;28;19924;-70
2022/04/26 05:39:03;;;;;;;;;;;;;;;14.16;53.20;101826.03;5091104;28;19920;-70
2022/04/26 05:41:28;;;;;;;;;;;;;;;14.33;52.12;101818.19;5085602;28;19972;-70
2022/04/26 05:43:53;;;;;;;;;;;;;;;13.96;53.35;101826.22;5070746;28;20292;-70
2022/04/26 05:46:18;;;;;;;;;;;;;;;14.68;51.28;101830.00;5070830;28;19932;-71
2022/04/26 05:48:44;;;;;;;;;;;;;;;14.64;51.31;101829.63;5070676;28;19916;-71
2022/04/26 05:51:09;;;;;;;;;;;;;;;14.11;53.24;101826.69;5070874;28;19939;-70
2022/04/26 05:53:35;;;;;;;;;;;;;;;14.13;53.39;101834.59;5070487;28;19920;-72
2022/04/26 05:56:04;;;;;;;;;;;;;;;13.65;54.61;101839.00;5070582;28;19916;-69
2022/04/26 05:58:29;;;;;;;;;;;;;;;13.95;52.68;101845.38;5070727;28;19931;-70
2022/04/26 06:00:54;;;;;;;;;;;;;;;13.93;53.29;101847.47;5070745;28;20376;-71
2022/04/26 06:03:21;;;;;;;;;;;;;;;14.91;50.89;101846.34;5069372;28;19929;-70
2022/04/26 06:05:46;;;;;;;;;;;;;;;13.77;53.78;101856.97;5071435;28;20335;-71
2022/04/26 06:08:11;;;;;;;;;;;;;;;14.47;52.17;101852.09;5074028;28;19920;-71
2022/04/26 06:10:38;;;;;;;;;;;;;;;13.84;53.49;101851.50;5074816;28;19951;-71
2022/04/26 06:13:03;;;;;;;;;;;;;;;13.94;53.61;101855.34;5073837;28;19921;-71
2022/04/26 06:15:28;;;;;;;;;;;;;;;15.00;50.78;101852.28;5083896;28;19928;-71
2022/04/26 06:17:54;;;;;;;;;;;;;;;14.46;51.28;101853.19;5095123;28;20376;-71
2022/04/26 06:20:22;;;;;;;;;;;;;;;14.44;51.82;101849.88;5093100;28;19931;-71
2022/04/26 06:22:48;;;;;;;;;;;;;;;14.31;52.21;101852.72;5074252;28;19921;-70
2022/04/26 06:25:13;;;;;;;;;;;;;;;13.71;53.87;101847.06;5074498;28;19928;-72
2022/04/26 06:27:38;;;;;;;;;;;;;;;14.53;51.77;101848.50;5073968;28;19931;-71
2022/04/26 06:30:04;;;;;;;;;;;;;;;14.46;51.69;101853.19;5087264;28;19916;-70
2022/04/26 06:32:29;;;;;;;;;;;;;;;14.71;50.74;101856.59;5092986;28;19924;-71
2022/04/26 06:34:54;;;;;;;;;;;;;;;14.91;50.36;101858.00;5094886;28;19927;-70
2022/04/26 06:37:23;;;;;;;;;;;;;;;14.84;50.55;101857.25;5080512;28;19959;-71
2022/04/26 06:39:48;;;;;;;;;;;;;;;14.21;51.65;101864.00;5094639;28;20399;-71
2022/04/26 06:42:13;;;;;;;;;;;;;;;15.34;49.15;101865.09;5093359;28;19916;-71
2022/04/26 06:44:39;;;;;;;;;;;;;;;13.89;52.72;101863.31;5094395;28;19943;-70
2022/04/26 06:47:04;;;;;;;;;;;;;;;13.79;52.96;101879.19;5094760;28;19927;-71
2022/04/26 06:49:29;;;;;;;;;;;;;;;13.39;54.95;101872.44;5083395;28;19930;-71
2022/04/26 06:51:54;;;;;;;;;;;;;;;14.19;51.96;101874.22;5074325;28;19920;-70
2022/04/26 06:54:20;;;;;;;;;;;;;;;13.96;52.57;101876.75;5079096;28;19917;-72
2022/04/26 06:56:46;;;;;;;;;;;;;;;14.15;52.36;101867.63;5081791;28;20444;-70
2022/04/26 06:59:12;;;;;;;;;;;;;;;13.66;53.20;101873.06;5087053;28;19928;-70
2022/04/26 07:01:38;;;;;;;;;;;;;;;13.57;53.60;101869.81;5085085;28;19920;-71
2022/04/26 07:04:03;;;;;;;;;;;;;;;15.09;50.08;101875.25;5088564;28;19920;-71
2022/04/26 07:06:28;;;;;;;;;;;;;;;15.27;48.82;101877.91;5087709;28;19916;-71
2022/04/26 07:08:54;;;;;;;;;;;;;;;15.27;49.31;101877.91;5074612;28;19954;-70
2022/04/26 07:11:19;;;;;;;;;;;;;;;14.51;50.44;101883.06;5084904;28;20395;-72
2022/04/26 07:13:44;;;;;;;;;;;;;;;14.58;50.52;101881.13;5085646;28;20393;-71
2022/04/26 07:16:09;;;;;;;;;;;;;;;14.27;51.03;101882.03;5087151;28;20393;-71
2022/04/26 07:18:35;;;;;;;;;;;;;;;14.24;51.52;101881.66;5088697;28;19916;-71
2022/04/26 07:21:00;;;;;;;;;;;;;;;14.95;49.39;101872.75;5082973;28;19973;-72
2022/04/26 07:23:25;;;;;;;;;;;;;;;16.17;46.03;101873.94;5084649;28;19943;-71
2022/04/26 07:25:55;;;;;;;;;;;;;;;15.09;48.78;101876.09;5083592;28;19952;-71
2022/04/26 07:28:20;;;;;;;;;;;;;;;14.95;49.34;101883.56;5077132;28;19999;-72
2022/04/26 07:30:46;;;;;;;;;;;;;;;16.03;46.52;101884.19;5076689;28;20349;-72
2022/04/26 07:35:55;;;;;;;;;;;;;;;14.52;50.12;101882.84;5079054;28;19943;-71
2022/04/26 07:38:20;;;;;;;;;;;;;;;15.09;48.79;101881.50;5081510;28;19920;-71
2022/04/26 07:40:46;;;;;;;;;;;;;;;15.72;47.16;101884.53;5080712;28;19931;-72
2022/04/26 07:43:12;;;;;;;;;;;;;;;16.35;45.44;101885.47;5086519;28;19962;-71
2022/04/26 07:45:37;;;;;;;;;;;;;;;16.39;44.56;101893.97;5085031;28;20295;-70
2022/04/26 07:48:03;;;;;;;;;;;;;;;16.77;43.72;101885.28;5086386;28;20403;-69
2022/04/26 07:50:30;;;;;;;;;;;;;;;16.15;45.01;101895.88;5079482;28;19921;-71
2022/04/26 07:52:55;;;;;;;;;;;;;;;16.87;43.52;101893.66;5084627;28;19936;-70
2022/04/26 07:55:21;;;;;;;;;;;;;;;16.98;43.27;101893.59;5081840;28;19927;-71
2022/04/26 07:57:46;;;;;;;;;;;;;;;17.22;42.41;101897.88;5081272;28;19920;-70
2022/04/26 08:00:12;;;;;;;;;;;;;;;16.84;43.21;101900.41;5074816;28;20023;-70
2022/04/26 08:02:37;;;;;;;;;;;;;;;16.94;42.84;101903.34;5082664;28;19920;-70
2022/04/26 08:05:02;;;;;;;;;;;;;;;16.66;43.31;101920.41;5087729;28;19923;-71
2022/04/26 08:07:33;;;;;;;;;;;;;;;16.88;43.26;101914.31;5090192;28;19920;-70
2022/04/26 08:10:16;;;;;;;;;;;;;;;16.11;44.71;101940.81;5087244;28;19927;-71
2022/04/26 08:12:42;;;;;;;;;;;;;;;16.82;42.84;101918.84;5074900;28;20398;-70
2022/04/26 08:15:08;;;;;;;;;;;;;;;15.81;45.20;101927.31;5081528;28;19958;-70
2022/04/26 08:17:34;;;;;;;;;;;;;;;15.52;46.31;101933.63;5084308;28;19928;-69
2022/04/26 08:19:59;;;;;;;;;;;;;;;16.31;44.69;101929.59;5080448;28;19929;-70
2022/04/26 08:22:24;;;;;;;;;;;;;;;17.43;42.18;101929.00;5080564;28;19920;-69
2022/04/26 08:27:33;;;;;;;;;;;;;;;16.02;45.04;101936.75;5080240;28;19923;-71
2022/04/26 08:30:00;;;;;;;;;;;;;;;17.03;43.06;101942.59;5079589;28;19924;-71
2022/04/26 08:32:26;;;;;;;;;;;;;;;16.64;43.91;101943.41;5078275;28;19924;-69
2022/04/26 08:34:52;;;;;;;;;;;;;;;17.24;42.73;101946.53;5071020;28;19924;-71
2022/04/26 08:37:18;;;;;;;;;;;;;;;16.35;45.01;101947.06;5079355;28;19920;-71
2022/04/26 08:39:43;;;;;;;;;;;;;;;17.31;42.54;101939.91;5091197;28;19931;-71
2022/04/26 08:42:08;;;;;;;;;;;;;;;17.55;41.17;101941.47;5072330;28;19978;-71
2022/04/26 08:44:34;;;;;;;;;;;;;;;17.35;41.05;101951.13;5072309;28;20299;-71
2022/04/26 08:52:44;;;;;;;;;;;;;;;18.23;38.35;101957.59;5072913;28;19986;-71
2022/04/26 08:55:09;;;;;;;;;;;;;;;17.12;39.67;101954.72;5071996;28;19981;-70
2022/04/26 08:57:35;;;;;;;;;;;;;;;16.61;40.50;101962.88;5071988;28;19909;-71
2022/04/26 09:00:02;;;;;;;;;;;;;;;16.63;40.51;101967.00;5076881;28;20376;-71
2022/04/26 09:02:27;;;;;;;;;;;;;;;17.06;39.62;101966.56;5087613;28;19990;-70
2022/04/26 09:05:00;;;;;;;;;;;;;;;17.14;39.65;101973.53;5071621;28;19924;-70
2022/04/26 09:07:29;;;;;;;;;;;;;;;17.36;38.63;101961.75;5075269;28;19956;-71
2022/04/26 09:10:08;;;;;;;;;;;;;;;18.33;36.04;101967.81;5071336;28;19920;-70
2022/04/26 09:12:53;;;;;;;;;;;;;;;18.06;36.08;101966.84;5089568;28;19912;-70
2022/04/26 09:15:18;;;;;;;;;;;;;;;17.72;36.32;101976.00;5090126;28;20055;-70
2022/04/26 09:17:44;;;;;;;;;;;;;;;17.74;36.69;101968.44;5082403;28;20007;-69
2022/04/26 09:20:09;;;;;;;;;;;;;;;17.89;37.07;101969.53;5090138;28;19924;-70
2022/04/26 09:22:35;;;;;;;;;;;;;;;18.53;35.88;101970.88;5083436;28;19927;-70
2022/04/26 09:25:18;;;;;;;;;;;;;;;17.80;37.33;101976.44;5069859;28;19943;-70
2022/04/26 09:27:44;;;;;;;;;;;;;;;18.62;35.93;101982.97;5072443;28;20031;-70
2022/04/26 09:30:13;;;;;;;;;;;;;;;17.56;38.07;101983.06;5069995;28;20011;-71
2022/04/26 09:32:44;;;;;;;;;;;;;;;17.96;37.70;101975.66;5069291;28;20415;-71
2022/04/26 09:35:22;;;;;;;;;;;;;;;18.59;37.06;101977.22;5067872;28;19924;-70
2022/04/26 09:37:48;;;;;;;;;;;;;;;18.41;36.51;101981.00;5079237;28;19925;-71
2022/04/26 09:40:13;;;;;;;;;;;;;;;17.89;37.51;101979.56;5068694;28;19924;-71
2022/04/26 09:42:38;;;;;;;;;;;;;;;18.38;36.40;101970.59;5072414;28;20321;-71
2022/04/26 09:45:07;;;;;;;;;;;;;;;19.02;34.70;101985.44;5073716;28;19916;-71
2022/04/26 09:47:36;;;;;;;;;;;;;;;17.81;37.06;101982.72;5073741;28;20399;-70
2022/04/26 09:50:04;;;;;;;;;;;;;;;17.19;38.44;101992.63;5074088;28;19916;-70
2022/04/26 09:52:29;;;;;;;;;;;;;;;17.95;37.52;101990.31;5072152;28;19920;-71
2022/04/26 09:55:00;;;;;;;;;;;;;;;18.26;36.69;101989.75;5073563;28;19924;-70
2022/04/26 09:57:28;;;;;;;;;;;;;;;19.21;34.39;101986.75;5088334;28;19912;-69
2022/04/26 09:59:53;;;;;;;;;;;;;;;19.38;34.16;101986.72;5094221;28;19935;-70
2022/04/26 10:02:20;;;;;;;;;;;;;;;18.19;35.31;101990.97;5074240;28;20080;-70
2022/04/26 10:04:46;;;;;;;;;;;;;;;19.07;33.81;101997.22;5079903;28;20354;-71
2022/04/26 10:07:13;;;;;;;;;;;;;;;18.83;33.67;101986.81;5073708;28;20059;-71
2022/04/26 10:09:39;;;;;;;;;;;;;;;18.95;34.20;101993.78;5072772;28;19916;-69
2022/04/26 10:12:04;;;;;;;;;;;;;;;18.54;34.47;101986.13;5073097;28;19922;-69
2022/04/26 10:14:30;;;;;;;;;;;;;;;19.58;32.17;101992.38;5071843;28;19951;-70
2022/04/26 10:16:56;;;;;;;;;;;;;;;18.91;32.36;101998.06;5072437;28;20009;-70
2022/04/26 10:19:35;;;;;;;;;;;;;;;19.64;31.55;101986.72;5072193;28;19931;-70
2022/04/26 10:22:00;;;;;;;;;;;;;;;19.97;30.99;102000.13;5072474;28;19916;-70
2022/04/26 10:24:25;;;;;;;;;;;;;;;20.89;30.16;101995.06;5091926;28;20299;-70
2022/04/26 10:27:09;;;;;;;;;;;;;;;21.74;28.52;101996.50;5094188;28;19930;-69
2022/04/26 10:29:43;;;;;;;;;;;;;;;19.68;30.85;101993.31;5093593;28;19955;-70
2022/04/26 10:32:10;;;;;;;;;;;;;;;19.46;32.11;102000.69;5079084;28;19920;-70
2022/04/26 10:34:36;;;;;;;;;;;;;;;18.12;33.83;102007.47;5082450;28;20003;-70
2022/04/26 10:37:07;;;;;;;;;;;;;;;18.49;33.54;102004.28;5093927;28;20395;-68
2022/04/26 10:39:39;;;;;;;;;;;;;;;18.34;33.28;101993.94;5088077;28;20013;-70
2022/04/26 10:42:26;;;;;;;;;;;;;;;18.72;34.12;102007.63;5078118;28;20202;-69
2022/04/26 10:44:55;;;;;;;;;;;;;;;19.01;33.49;102006.38;5084974;28;20292;-70
2022/04/26 10:47:22;;;;;;;;;;;;;;;18.77;32.97;102013.13;5093618;28;19922;-71
2022/04/26 10:49:48;;;;;;;;;;;;;;;18.57;33.79;102010.13;5091346;28;20200;-69
2022/04/26 10:52:22;;;;;;;;;;;;;;;19.12;32.12;102010.06;5092675;28;19997;-68
2022/04/26 10:54:58;;;;;;;;;;;;;;;19.96;30.67;102011.31;5084482;28;19920;-70
2022/04/26 10:57:43;;;;;;;;;;;;;;;18.79;31.26;102010.97;5082235;28;19912;-69
2022/04/26 11:00:10;;;;;;;;;;;;;;;19.35;30.77;102004.41;5081806;28;19931;-69
2022/04/26 11:02:36;;;;;;;;;;;;;;;21.10;28.86;101998.78;5083724;28;19927;-69
2022/04/26 11:05:08;;;;;;;;;;;;;;;20.75;28.50;102010.31;5093071;28;19924;-70
2022/04/26 11:07:34;;;;;;;;;;;;;;;20.31;29.67;102013.53;5091426;28;19949;-69
2022/04/26 11:10:00;;;;;;;;;;;;;;;21.06;28.37;102013.22;5087169;28;19924;-70
2022/04/26 11:12:27;;;;;;;;;;;;;;;19.33;29.75;102014.72;5074468;28;19959;-69
2022/04/26 11:14:54;;;;;;;;;;;;;;;21.17;28.30;102007.53;5072116;28;19912;-69
2022/04/26 11:17:22;;;;;;;;;;;;;;;22.15;26.23;102017.38;5072614;28;20345;-70
2022/04/26 11:19:51;;;;;;;;;;;;;;;21.83;26.02;102005.88;5084089;28;19924;-68
2022/04/26 11:22:17;;;;;;;;;;;;;;;21.84;26.99;102010.22;5090744;28;19924;-69
2022/04/26 11:30:23;;;;;;;;;;;;;;;19.93;29.07;102022.75;5093014;28;19927;-70
2022/04/26 11:32:48;;;;;;;;;;;;;;;20.50;27.74;102017.53;5093293;28;20384;-72
2022/04/26 11:35:14;;;;;;;;;;;;;;;20.51;28.74;102025.47;5074740;28;19920;-70
2022/04/26 11:37:46;;;;;;;;;;;;;;;21.70;27.18;102018.09;5072669;28;19916;-70
2022/04/26 11:40:20;;;;;;;;;;;;;;;20.82;28.69;102027.28;5072265;28;20404;-70
2022/04/26 11:42:45;;;;;;;;;;;;;;;21.36;28.15;102029.78;5072027;28;19916;-70
2022/04/26 11:45:10;;;;;;;;;;;;;;;20.03;29.29;102031.84;5072484;28;19939;-69
2022/04/26 11:47:48;;;;;;;;;;;;;;;19.79;29.57;102029.69;5074260;28;19917;-69
2022/04/26 11:50:23;;;;;;;;;;;;;;;21.10;28.34;102028.84;5079647;28;19927;-68
2022/04/26 11:52:49;;;;;;;;;;;;;;;20.08;28.80;102033.81;5091568;28;20575;-70
2022/04/26 11:55:19;;;;;;;;;;;;;;;20.07;28.99;102034.88;5091415;28;19999;-71
2022/04/26 12:00:50;;;;;;;;;;;;;;;21.11;27.92;102038.69;5091997;28;20467;-71
2022/04/26 12:03:16;;;;;;;;;;;;;;;20.87;27.59;102034.72;5091593;28;19938;-71
2022/04/26 12:05:41;;;;;;;;;;;;;;;21.26;26.80;102032.47;5091243;28;20364;-69
2022/04/26 12:08:10;;;;;;;;;;;;;;;21.51;26.23;102032.56;5091294;28;19916;-71
2022/04/26 12:10:36;;;;;;;;;;;;;;;23.07;24.76;102038.94;5091163;28;19926;-71
2022/04/26 12:13:03;;;;;;;;;;;;;;;22.80;24.01;102037.63;5091423;28;19916;-70
2022/04/26 12:15:37;;;;;;;;;;;;;;;22.02;25.48;102052.69;5083692;28;20368;-71
2022/04/26 12:18:03;;;;;;;;;;;;;;;21.54;26.25;102046.50;5071630;28;19919;-70
2022/04/26 12:20:28;;;;;;;;;;;;;;;20.54;27.89;102043.22;5070761;28;20007;-70
2022/04/26 12:22:54;;;;;;;;;;;;;;;22.02;26.82;102047.19;5069578;28;19920;-69
2022/04/26 12:25:19;;;;;;;;;;;;;;;21.92;26.04;102034.31;5071038;28;19947;-70
2022/04/26 12:28:04;;;;;;;;;;;;;;;21.97;26.15;102039.81;5071176;28;19977;-70
2022/04/26 12:30:30;;;;;;;;;;;;;;;21.93;25.93;102037.91;5070957;28;19966;-70
2022/04/26 12:32:55;;;;;;;;;;;;;;;20.62;27.28;102046.28;5070823;28;20009;-71
2022/04/26 12:35:21;;;;;;;;;;;;;;;20.14;27.51;102060.91;5086459;28;19927;-70
2022/04/26 12:37:47;;;;;;;;;;;;;;;20.30;27.10;102059.16;5070190;28;20008;-70
2022/04/26 12:40:15;;;;;;;;;;;;;;;21.56;25.06;102052.53;5078141;28;19973;-70
2022/04/26 12:42:42;;;;;;;;;;;;;;;21.33;24.93;102050.28;5089993;28;19921;-70
2022/04/26 12:45:12;;;;;;;;;;;;;;;21.41;24.71;102052.50;5090215;28;19912;-70
2022/04/26 12:50:36;;;;;;;;;;;;;;;21.57;25.06;102051.47;5089508;28;19927;-71
2022/04/26 12:53:04;;;;;;;;;;;;;;;20.81;25.99;102057.63;5090091;28;20385;-71
2022/04/26 12:55:34;;;;;;;;;;;;;;;21.22;25.75;102045.84;5089920;28;20375;-70
2022/04/26 12:58:18;;;;;;;;;;;;;;;22.12;23.80;102028.88;5090722;28;20303;-69
2022/04/26 13:00:50;;;;;;;;;;;;;;;21.84;24.95;102043.91;5074378;28;20192;-70
2022/04/26 13:03:18;;;;;;;;;;;;;;;22.40;24.04;102044.78;5075933;28;19922;-69
2022/04/26 13:05:47;;;;;;;;;;;;;;;21.94;24.01;102039.53;5087847;28;20367;-69
2022/04/26 13:08:14;;;;;;;;;;;;;;;22.77;23.13;102032.69;5086291;28;19959;-70
2022/04/26 13:10:40;;;;;;;;;;;;;;;21.92;24.50;102050.75;5085295;28;20380;-71
2022/04/26 13:13:05;;;;;;;;;;;;;;;21.35;25.58;102041.78;5080207;28;19927;-70
2022/04/26 13:15:31;;;;;;;;;;;;;;;19.92;27.52;102045.66;5071002;28;20003;-69
2022/04/26 13:17:57;;;;;;;;;;;;;;;20.76;26.79;102050.22;5090826;28;19909;-71
2022/04/26 13:20:22;;;;;;;;;;;;;;;21.78;26.64;102046.84;5093165;28;20042;-70
2022/04/26 13:22:48;;;;;;;;;;;;;;;22.28;24.70;102041.50;5094275;28;20295;-70
2022/04/26 13:25:13;;;;;;;;;;;;;;;21.19;25.42;102051.03;5080804;28;19920;-69
2022/04/26 13:27:38;;;;;;;;;;;;;;;22.86;24.05;102040.06;5089987;28;19928;-70
2022/04/26 13:30:05;;;;;;;;;;;;;;;21.84;24.62;102026.66;5093989;28;19931;-69
2022/04/26 13:32:30;;;;;;;;;;;;;;;21.55;25.32;102037.22;5092499;28;20054;-70
2022/04/26 13:34:59;;;;;;;;;;;;;;;22.25;25.24;102035.75;5079001;28;20249;-70
2022/04/26 13:37:25;;;;;;;;;;;;;;;20.86;25.94;102043.97;5089549;28;20132;-70
2022/04/26 13:39:51;;;;;;;;;;;;;;;21.81;25.45;102041.72;5092356;28;19978;-67
2022/04/26 13:42:17;;;;;;;;;;;;;;;21.42;24.87;102034.19;5092789;28;20018;-70
2022/04/26 13:44:42;;;;;;;;;;;;;;;20.72;25.59;102040.06;5091436;28;20478;-68
2022/04/26 13:47:08;;;;;;;;;;;;;;;20.87;25.39;102042.91;5092857;28;19923;-69
2022/04/26 13:49:34;;;;;;;;;;;;;;;21.02;25.35;102040.28;5090729;28;19920;-69
2022/04/26 13:52:00;;;;;;;;;;;;;;;22.05;25.18;102027.50;5091467;28;20234;-71
2022/04/26 13:54:27;;;;;;;;;;;;;;;21.58;25.51;102033.94;5092498;28;19919;-70
2022/04/26 13:56:53;;;;;;;;;;;;;;;21.36;24.95;102041.56;5093179;28;19920;-70
2022/04/26 13:59:18;;;;;;;;;;;;;;;21.68;24.91;102028.50;5082572;28;19924;-71
2022/04/26 14:01:43;;;;;;;;;;;;;;;21.84;24.55;102030.22;5071465;28;19924;-69
2022/04/26 14:04:08;;;;;;;;;;;;;;;22.24;24.14;102031.34;5078225;28;19927;-68
2022/04/26 14:06:34;;;;;;;;;;;;;;;22.24;24.35;102023.97;5091120;28;19958;-70
2022/04/26 14:08:59;;;;;;;;;;;;;;;21.56;24.85;102027.13;5079227;28;19916;-70
2022/04/26 14:11:24;;;;;;;;;;;;;;;21.82;24.56;102021.44;5079657;28;20197;-69
2022/04/26 14:22:02;;;;;;;;;;;;;;;22.63;23.53;102025.06;5071160;28;20015;-73
2022/04/26 14:24:28;;;;;;;;;;;;;;;21.13;25.25;102035.69;5071057;28;19930;-72
2022/04/26 14:26:53;;;;;;;;;;;;;;;22.17;24.20;102031.59;5070387;28;20011;-71
2022/04/26 14:29:19;;;;;;;;;;;;;;;22.23;23.22;102033.25;5071712;28;20002;-69
2022/04/26 14:31:44;;;;;;;;;;;;;;;22.36;23.57;102021.78;5070556;28;19964;-69
2022/04/26 14:34:11;;;;;;;;;;;;;;;22.68;22.91;102016.00;5077995;28;19924;-68
2022/04/26 14:36:36;;;;;;;;;;;;;;;22.05;24.75;102017.41;5081009;28;19916;-70
2022/04/26 14:39:01;;;;;;;;;;;;;;;23.77;22.89;102009.53;5070985;28;20372;-68
2022/04/26 14:41:27;;;;;;;;;;;;;;;23.92;22.87;102012.97;5071265;28;19960;-69
2022/04/26 14:43:52;;;;;;;;;;;;;;;24.62;22.65;102014.34;5073033;28;19924;-70
2022/04/26 14:46:18;;;;;;;;;;;;;;;23.64;22.87;102024.72;5071081;28;20343;-70
2022/04/26 14:48:44;;;;;;;;;;;;;;;22.21;24.73;102018.22;5071208;28;19927;-70
2022/04/26 14:51:10;;;;;;;;;;;;;;;22.36;24.92;102027.25;5071384;28;19912;-70
2022/04/26 14:53:35;;;;;;;;;;;;;;;22.22;25.08;102028.06;5070592;28;19920;-69
2022/04/26 14:56:01;;;;;;;;;;;;;;;23.20;23.92;102026.53;5072238;28;20395;-71
2022/04/26 14:58:46;;;;;;;;;;;;;;;22.99;23.72;102020.31;5074604;28;19920;-69
2022/04/26 15:01:11;;;;;;;;;;;;;;;23.72;22.31;102017.81;5092188;28;19924;-69
2022/04/26 15:03:37;;;;;;;;;;;;;;;22.30;24.13;102016.56;5089634;28;19918;-69
2022/04/26 15:06:02;;;;;;;;;;;;;;;22.83;23.34;102026.94;5071974;28;20028;-69
2022/04/26 15:11:11;;;;;;;;;;;;;;;23.63;22.97;102014.00;5081073;28;19973;-71
2022/04/26 15:16:40;;;;;;;;;;;;;;;24.17;21.88;102023.00;5079381;28;19964;-71
2022/04/26 15:19:09;;;;;;;;;;;;;;;24.21;22.52;102019.41;5077104;28;20284;-70
2022/04/26 15:21:34;;;;;;;;;;;;;;;24.15;22.16;102027.97;5073249;28;20086;-69
2022/04/26 15:24:00;;;;;;;;;;;;;;;24.33;22.16;102033.56;5071024;28;20372;-70
2022/04/26 15:26:25;;;;;;;;;;;;;;;24.45;21.82;102037.88;5070029;28;19964;-67
2022/04/26 15:28:51;;;;;;;;;;;;;;;21.78;25.39;102033.16;5070365;28;20297;-68
2022/04/26 15:31:18;;;;;;;;;;;;;;;21.04;26.64;102049.03;5070814;28;20124;-69
2022/04/26 15:33:44;;;;;;;;;;;;;;;20.05;28.14;102035.13;5073045;28;19920;-71
2022/04/26 15:36:09;;;;;;;;;;;;;;;21.28;26.46;102039.31;5085306;28;20395;-71
2022/04/26 15:38:35;;;;;;;;;;;;;;;20.71;26.63;102050.19;5069181;28;19967;-71
2022/04/26 15:41:01;;;;;;;;;;;;;;;20.77;26.61;102045.56;5069299;28;20388;-70
2022/04/26 15:43:28;;;;;;;;;;;;;;;20.17;27.33;102047.81;5070372;28;19920;-69
2022/04/26 15:45:53;;;;;;;;;;;;;;;20.47;27.18;102050.81;5068403;28;19959;-72
2022/04/26 15:48:18;;;;;;;;;;;;;;;21.25;26.12;102058.16;5069919;28;19967;-69
2022/04/26 15:50:44;;;;;;;;;;;;;;;21.04;26.42;102051.78;5070760;28;19908;-69
2022/04/26 15:53:09;;;;;;;;;;;;;;;21.78;25.46;102052.31;5068302;28;19924;-70
2022/04/26 15:55:35;;;;;;;;;;;;;;;20.71;26.30;102057.56;5069951;28;19920;-70
2022/04/26 15:58:00;;;;;;;;;;;;;;;21.66;24.95;102058.03;5069780;28;19971;-72
2022/04/26 16:00:26;;;;;;;;;;;;;;;23.05;23.64;102052.09;5069850;28;19939;-70
2022/04/26 16:02:53;;;;;;;;;;;;;;;22.83;23.38;102048.88;5076454;28;19920;-68
2022/04/26 16:05:18;;;;;;;;;;;;;;;22.17;24.09;102050.78;5074026;28;19977;-69
2022/04/26 16:07:43;;;;;;;;;;;;;;;23.40;23.25;102053.91;5080213;28;19920;-70
2022/04/26 16:21:04;;;;;;;;;;;;;;;20.64;27.70;102070.59;5074278;28;20241;-70
2022/04/26 16:23:29;;;;;;;;;;;;;;;20.56;27.96;102084.75;5084125;28;19928;-71
2022/04/26 16:26:01;;;;;;;;;;;;;;;19.95;28.58;102070.50;5081640;28;19920;-70
2022/04/26 16:28:47;;;;;;;;;;;;;;;20.39;28.12;102064.94;5078145;28;19931;-72
2022/04/26 16:31:13;;;;;;;;;;;;;;;19.94;29.02;102071.59;5081830;28;19924;-71
2022/04/26 16:33:38;;;;;;;;;;;;;;;21.42;26.27;102064.25;5081769;28;19927;-70
2022/04/26 16:36:04;;;;;;;;;;;;;;;22.45;25.06;102063.09;5078102;28;19912;-69
2022/04/26 16:38:29;;;;;;;;;;;;;;;20.81;26.77;102069.34;5083463;28;19916;-71
2022/04/26 16:40:56;;;;;;;;;;;;;;;20.78;27.22;102071.78;5074147;28;19935;-71
2022/04/26 16:43:22;;;;;;;;;;;;;;;20.34;27.62;102082.13;5079755;28;19958;-71
2022/04/26 16:45:48;;;;;;;;;;;;;;;20.98;26.00;102078.22;5080149;28;19971;-71
2022/04/26 16:48:14;;;;;;;;;;;;;;;22.26;23.89;102078.44;5084152;28;19962;-69
2022/04/26 16:50:39;;;;;;;;;;;;;;;21.80;24.38;102078.38;5088896;28;19928;-72
2022/04/26 16:53:05;;;;;;;;;;;;;;;22.21;23.89;102073.00;5089393;28;19927;-70
2022/04/26 16:55:30;;;;;;;;;;;;;;;21.32;25.85;102075.16;5080983;28;19924;-72
2022/04/26 16:57:57;;;;;;;;;;;;;;;20.84;26.75;102089.88;5080035;28;19927;-71
2022/04/26 17:00:23;;;;;;;;;;;;;;;19.65;28.12;102075.66;5079177;28;20387;-69
2022/04/26 17:02:49;;;;;;;;;;;;;;;18.95;29.39;102080.94;5072446;28;20126;-74